sensor_id;sensor_type;location;lat;lon;timestamp;pressure;altitude;pressure_sealevel;temperature;humidity
51315;BME280;65787;59.922;10.742;2023-06-14T00:02:02;101476.16;;;28.50;24.20
51315;BME280;65787;59.922;10.742;2023-06-14T00:04:27;101478.09;;;28.49;24.49
51315;BME280;65787;59.922;10.742;2023-06-14T00:06:53;101479.19;;;28.53;23.87
51315;BME280;65787;59.922;10.742;2023-06-14T00:09:22;101481.16;;;28.53;23.67
51315;BME280;65787;59.922;10.742;2023-06-14T00:11:47;101484.44;;;28.55;24.08
51315;BME280;65787;59.922;10.742;2023-06-14T00:14:12;101477.78;;;28.51;24.48
51315;BME280;65787;59.922;10.742;2023-06-14T00:16:37;101487.25;;;28.45;24.81
51315;BME280;65787;59.922;10.742;2023-06-14T00:19:04;101482.00;;;28.43;24.16
51315;BME280;65787;59.922;10.742;2023-06-14T00:21:30;101480.63;;;28.46;24.21
51315;BME280;65787;59.922;10.742;2023-06-14T00:23:57;101485.91;;;28.42;24.54
51315;BME280;65787;59.922;10.742;2023-06-14T00:26:22;101488.38;;;28.44;24.50
51315;BME280;65787;59.922;10.742;2023-06-14T00:28:47;101487.53;;;28.43;23.98
51315;BME280;65787;59.922;10.742;2023-06-14T00:31:12;101490.59;;;28.42;24.37
51315;BME280;65787;59.922;10.742;2023-06-14T00:33:38;101492.50;;;28.46;24.11
51315;BME280;65787;59.922;10.742;2023-06-14T00:36:03;101491.41;;;28.47;24.00
51315;BME280;65787;59.922;10.742;2023-06-14T00:38:28;101483.38;;;28.46;23.88
51315;BME280;65787;59.922;10.742;2023-06-14T00:40:54;101483.31;;;28.51;24.06
51315;BME280;65787;59.922;10.742;2023-06-14T00:43:19;101486.94;;;28.51;24.04
51315;BME280;65787;59.922;10.742;2023-06-14T00:45:44;101489.97;;;28.50;24.05
51315;BME280;65787;59.922;10.742;2023-06-14T00:48:10;101487.00;;;28.41;24.39
51315;BME280;65787;59.922;10.742;2023-06-14T00:50:36;101487.03;;;28.36;24.56
51315;BME280;65787;59.922;10.742;2023-06-14T00:53:01;101490.13;;;28.34;23.80
51315;BME280;65787;59.922;10.742;2023-06-14T00:55:27;101487.34;;;28.34;24.57
51315;BME280;65787;59.922;10.742;2023-06-14T00:57:54;101485.69;;;28.33;24.30
51315;BME280;65787;59.922;10.742;2023-06-14T01:00:19;101493.16;;;28.33;24.59
51315;BME280;65787;59.922;10.742;2023-06-14T01:02:44;101487.66;;;28.28;24.46
51315;BME280;65787;59.922;10.742;2023-06-14T01:05:10;101492.41;;;28.22;24.43
51315;BME280;65787;59.922;10.742;2023-06-14T01:07:48;101496.03;;;28.17;24.82
51315;BME280;65787;59.922;10.742;2023-06-14T01:12:52;101488.88;;;28.16;25.00
51315;BME280;65787;59.922;10.742;2023-06-14T01:15:21;101499.03;;;28.21;24.56
51315;BME280;65787;59.922;10.742;2023-06-14T01:17:49;101496.84;;;28.23;24.58
51315;BME280;65787;59.922;10.742;2023-06-14T01:20:16;101498.22;;;28.21;25.38
51315;BME280;65787;59.922;10.742;2023-06-14T01:22:54;101497.16;;;28.16;25.11
51315;BME280;65787;59.922;10.742;2023-06-14T01:25:20;101495.50;;;28.15;24.89
51315;BME280;65787;59.922;10.742;2023-06-14T01:27:57;101493.03;;;28.14;25.05
51315;BME280;65787;59.922;10.742;2023-06-14T01:30:24;101488.88;;;28.11;25.15
51315;BME280;65787;59.922;10.742;2023-06-14T01:32:50;101495.53;;;28.10;24.83
51315;BME280;65787;59.922;10.742;2023-06-14T01:35:17;101494.41;;;28.11;24.68
51315;BME280;65787;59.922;10.742;2023-06-14T01:37:43;101492.78;;;28.10;25.52
51315;BME280;65787;59.922;10.742;2023-06-14T01:40:09;101501.09;;;28.05;25.00
51315;BME280;65787;59.922;10.742;2023-06-14T01:42:36;101498.91;;;28.02;25.22
51315;BME280;65787;59.922;10.742;2023-06-14T01:45:02;101495.34;;;27.96;25.64
51315;BME280;65787;59.922;10.742;2023-06-14T01:47:29;101500.59;;;27.93;25.86
51315;BME280;65787;59.922;10.742;2023-06-14T01:49:54;101507.78;;;27.89;25.37
51315;BME280;65787;59.922;10.742;2023-06-14T01:52:19;101504.22;;;27.88;25.53
51315;BME280;65787;59.922;10.742;2023-06-14T01:54:47;101502.00;;;27.85;25.50
51315;BME280;65787;59.922;10.742;2023-06-14T01:57:12;101497.91;;;27.83;25.78
51315;BME280;65787;59.922;10.742;2023-06-14T01:59:38;101504.50;;;27.87;25.79
51315;BME280;65787;59.922;10.742;2023-06-14T02:02:03;101510.56;;;27.94;25.50
51315;BME280;65787;59.922;10.742;2023-06-14T02:04:28;101508.06;;;27.87;25.63
51315;BME280;65787;59.922;10.742;2023-06-14T02:06:54;101500.88;;;27.91;25.78
51315;BME280;65787;59.922;10.742;2023-06-14T02:09:19;101499.78;;;27.87;26.04
51315;BME280;65787;59.922;10.742;2023-06-14T02:11:44;101501.72;;;27.87;25.66
51315;BME280;65787;59.922;10.742;2023-06-14T02:14:10;101504.78;;;27.90;26.32
51315;BME280;65787;59.922;10.742;2023-06-14T02:16:37;101504.69;;;28.00;26.09
51315;BME280;65787;59.922;10.742;2023-06-14T02:19:02;101499.16;;;28.06;25.85
51315;BME280;65787;59.922;10.742;2023-06-14T02:21:27;101504.41;;;28.07;25.98
51315;BME280;65787;59.922;10.742;2023-06-14T02:23:53;101502.44;;;28.08;25.47
51315;BME280;65787;59.922;10.742;2023-06-14T02:26:18;101497.81;;;28.03;26.20
51315;BME280;65787;59.922;10.742;2023-06-14T02:28:43;101499.19;;;28.00;25.61
51315;BME280;65787;59.922;10.742;2023-06-14T02:31:08;101501.94;;;28.00;26.45
51315;BME280;65787;59.922;10.742;2023-06-14T02:33:33;101496.38;;;28.06;25.80
51315;BME280;65787;59.922;10.742;2023-06-14T02:35:59;101501.66;;;28.02;26.15
51315;BME280;65787;59.922;10.742;2023-06-14T02:38:24;101501.94;;;28.00;25.83
51315;BME280;65787;59.922;10.742;2023-06-14T02:40:50;101496.72;;;27.99;26.28
51315;BME280;65787;59.922;10.742;2023-06-14T02:43:15;101495.34;;;27.96;26.44
51315;BME280;65787;59.922;10.742;2023-06-14T02:45:42;101503.38;;;27.93;26.65
51315;BME280;65787;59.922;10.742;2023-06-14T02:48:07;101499.25;;;27.90;26.57
51315;BME280;65787;59.922;10.742;2023-06-14T02:50:33;101509.72;;;27.88;26.46
51315;BME280;65787;59.922;10.742;2023-06-14T02:52:58;101506.97;;;27.88;25.91
51315;BME280;65787;59.922;10.742;2023-06-14T02:55:23;101506.72;;;27.90;26.59
51315;BME280;65787;59.922;10.742;2023-06-14T02:57:49;101510.00;;;27.87;26.36
51315;BME280;65787;59.922;10.742;2023-06-14T03:00:14;101503.41;;;27.83;26.57
51315;BME280;65787;59.922;10.742;2023-06-14T03:02:40;101508.09;;;27.82;26.29
51315;BME280;65787;59.922;10.742;2023-06-14T03:05:07;101502.88;;;27.80;26.04
51315;BME280;65787;59.922;10.742;2023-06-14T03:07:33;101507.28;;;27.76;26.49
51315;BME280;65787;59.922;10.742;2023-06-14T03:09:59;101505.41;;;27.72;26.74
51315;BME280;65787;59.922;10.742;2023-06-14T03:12:24;101509.25;;;27.71;26.76
51315;BME280;65787;59.922;10.742;2023-06-14T03:14:50;101503.44;;;27.77;26.21
51315;BME280;65787;59.922;10.742;2023-06-14T03:17:16;101505.66;;;27.75;26.60
51315;BME280;65787;59.922;10.742;2023-06-14T03:19:42;101504.00;;;27.74;26.49
51315;BME280;65787;59.922;10.742;2023-06-14T03:22:08;101514.47;;;27.77;26.16
51315;BME280;65787;59.922;10.742;2023-06-14T03:24:33;101507.28;;;27.81;26.07
51315;BME280;65787;59.922;10.742;2023-06-14T03:27:01;101516.06;;;27.89;25.93
51315;BME280;65787;59.922;10.742;2023-06-14T03:29:27;101513.59;;;27.87;26.58
51315;BME280;65787;59.922;10.742;2023-06-14T03:31:59;101510.84;;;27.87;26.55
51315;BME280;65787;59.922;10.742;2023-06-14T03:34:25;101510.56;;;27.94;26.40
51315;BME280;65787;59.922;10.742;2023-06-14T03:36:50;101512.78;;;27.92;26.91
51315;BME280;65787;59.922;10.742;2023-06-14T03:39:15;101512.19;;;27.95;26.69
51315;BME280;65787;59.922;10.742;2023-06-14T03:41:40;101515.81;;;27.95;26.53
51315;BME280;65787;59.922;10.742;2023-06-14T03:44:06;101516.34;;;27.97;26.82
51315;BME280;65787;59.922;10.742;2023-06-14T03:46:31;101521.84;;;27.97;26.86
51315;BME280;65787;59.922;10.742;2023-06-14T03:48:56;101527.38;;;27.97;26.85
51315;BME280;65787;59.922;10.742;2023-06-14T03:51:22;101519.13;;;27.92;27.34
51315;BME280;65787;59.922;10.742;2023-06-14T03:53:47;101522.16;;;27.91;27.10
51315;BME280;65787;59.922;10.742;2023-06-14T03:56:15;101520.72;;;27.98;27.07
51315;BME280;65787;59.922;10.742;2023-06-14T03:58:41;101524.03;;;28.00;27.16
51315;BME280;65787;59.922;10.742;2023-06-14T04:01:06;101528.72;;;28.05;27.12
51315;BME280;65787;59.922;10.742;2023-06-14T04:03:32;101530.06;;;28.08;26.83
51315;BME280;65787;59.922;10.742;2023-06-14T04:05:58;101533.09;;;28.11;26.92
51315;BME280;65787;59.922;10.742;2023-06-14T04:08:24;101531.94;;;28.17;26.95
51315;BME280;65787;59.922;10.742;2023-06-14T04:10:50;101540.53;;;28.16;26.56
51315;BME280;65787;59.922;10.742;2023-06-14T04:13:15;101530.56;;;28.20;26.74
51315;BME280;65787;59.922;10.742;2023-06-14T04:15:40;101539.38;;;28.22;26.79
51315;BME280;65787;59.922;10.742;2023-06-14T04:18:07;101539.38;;;28.22;27.16
51315;BME280;65787;59.922;10.742;2023-06-14T04:20:32;101547.28;;;28.34;26.78
51315;BME280;65787;59.922;10.742;2023-06-14T04:23:10;101542.00;;;28.43;26.88
51315;BME280;65787;59.922;10.742;2023-06-14T04:25:37;101542.78;;;28.48;27.62
51315;BME280;65787;59.922;10.742;2023-06-14T04:28:02;101545.25;;;28.50;27.61
51315;BME280;65787;59.922;10.742;2023-06-14T04:30:28;101550.78;;;28.50;28.28
51315;BME280;65787;59.922;10.742;2023-06-14T04:32:56;101544.13;;;28.56;27.98
51315;BME280;65787;59.922;10.742;2023-06-14T04:35:21;101545.50;;;28.59;27.68
51315;BME280;65787;59.922;10.742;2023-06-14T04:37:49;101548.44;;;28.67;27.44
51315;BME280;65787;59.922;10.742;2023-06-14T04:40:14;101552.28;;;28.71;27.90
51315;BME280;65787;59.922;10.742;2023-06-14T04:42:39;101546.75;;;28.71;27.85
51315;BME280;65787;59.922;10.742;2023-06-14T04:45:05;101555.34;;;28.70;27.62
51315;BME280;65787;59.922;10.742;2023-06-14T04:47:32;101556.75;;;28.67;28.08
51315;BME280;65787;59.922;10.742;2023-06-14T04:49:57;101555.34;;;28.70;28.21
51315;BME280;65787;59.922;10.742;2023-06-14T04:52:23;101552.00;;;28.73;27.59
51315;BME280;65787;59.922;10.742;2023-06-14T04:54:51;101552.28;;;28.71;28.28
51315;BME280;65787;59.922;10.742;2023-06-14T04:57:17;101551.72;;;28.74;28.31
51315;BME280;65787;59.922;10.742;2023-06-14T04:59:47;101548.09;;;28.79;27.89
51315;BME280;65787;59.922;10.742;2023-06-14T05:02:12;101548.38;;;28.77;28.20
51315;BME280;65787;59.922;10.742;2023-06-14T05:04:38;101549.47;;;28.76;28.50
51315;BME280;65787;59.922;10.742;2023-06-14T05:07:08;101547.56;;;28.77;27.84
51315;BME280;65787;59.922;10.742;2023-06-14T05:09:36;101551.72;;;28.74;28.86
51315;BME280;65787;59.922;10.742;2023-06-14T05:12:01;101550.97;;;28.64;28.93
51315;BME280;65787;59.922;10.742;2023-06-14T05:14:26;101542.41;;;28.60;29.26
51315;BME280;65787;59.922;10.742;2023-06-14T05:16:52;101544.06;;;28.66;28.92
51315;BME280;65787;59.922;10.742;2023-06-14T05:19:18;101542.06;;;28.72;28.66
51315;BME280;65787;59.922;10.742;2023-06-14T05:21:43;101546.19;;;28.74;28.74
51315;BME280;65787;59.922;10.742;2023-06-14T05:24:09;101546.94;;;28.80;29.15
51315;BME280;65787;59.922;10.742;2023-06-14T05:26:36;101543.63;;;28.83;28.60
51315;BME280;65787;59.922;10.742;2023-06-14T05:29:02;101544.78;;;28.77;28.43
51315;BME280;65787;59.922;10.742;2023-06-14T05:31:27;101544.69;;;28.87;28.83
51315;BME280;65787;59.922;10.742;2023-06-14T05:33:53;101548.88;;;28.85;28.80
51315;BME280;65787;59.922;10.742;2023-06-14T05:36:19;101549.41;;;28.87;28.53
51315;BME280;65787;59.922;10.742;2023-06-14T05:38:45;101549.94;;;28.89;28.93
51315;BME280;65787;59.922;10.742;2023-06-14T05:41:10;101557.00;;;29.00;28.85
51315;BME280;65787;59.922;10.742;2023-06-14T05:43:35;101559.13;;;29.08;28.01
51315;BME280;65787;59.922;10.742;2023-06-14T05:46:00;101559.09;;;29.13;28.57
51315;BME280;65787;59.922;10.742;2023-06-14T05:48:26;101569.00;;;29.20;28.13
51315;BME280;65787;59.922;10.742;2023-06-14T05:50:51;101564.38;;;29.10;28.62
51315;BME280;65787;59.922;10.742;2023-06-14T05:53:16;101567.41;;;29.08;28.50
51315;BME280;65787;59.922;10.742;2023-06-14T05:55:42;101573.19;;;29.17;28.68
51315;BME280;65787;59.922;10.742;2023-06-14T05:58:07;101561.25;;;29.22;27.98
51315;BME280;65787;59.922;10.742;2023-06-14T06:00:33;101559.94;;;29.38;27.73
51315;BME280;65787;59.922;10.742;2023-06-14T06:02:58;101575.50;;;29.34;28.10
51315;BME280;65787;59.922;10.742;2023-06-14T06:05:24;101574.53;;;29.44;28.39
51315;BME280;65787;59.922;10.742;2023-06-14T06:07:49;101568.00;;;29.34;28.41
51315;BME280;65787;59.922;10.742;2023-06-14T06:10:14;101568.47;;;29.42;28.14
51315;BME280;65787;59.922;10.742;2023-06-14T06:12:41;101569.25;;;29.47;28.23
51315;BME280;65787;59.922;10.742;2023-06-14T06:15:06;101577.50;;;29.52;28.08
51315;BME280;65787;59.922;10.742;2023-06-14T06:17:32;101579.22;;;29.48;28.79
51315;BME280;65787;59.922;10.742;2023-06-14T06:19:58;101576.44;;;29.48;28.36
51315;BME280;65787;59.922;10.742;2023-06-14T06:22:23;101574.44;;;29.54;28.46
51315;BME280;65787;59.922;10.742;2023-06-14T06:24:48;101572.16;;;29.61;28.41
51315;BME280;65787;59.922;10.742;2023-06-14T06:27:14;101585.47;;;29.59;28.34
51315;BME280;65787;59.922;10.742;2023-06-14T06:29:41;101580.44;;;29.61;28.46
51315;BME280;65787;59.922;10.742;2023-06-14T06:32:06;101582.31;;;29.66;28.46
51315;BME280;65787;59.922;10.742;2023-06-14T06:34:32;101580.41;;;29.66;28.03
51315;BME280;65787;59.922;10.742;2023-06-14T06:36:57;101590.38;;;29.62;28.19
51315;BME280;65787;59.922;10.742;2023-06-14T06:39:22;101590.56;;;29.71;28.25
51315;BME280;65787;59.922;10.742;2023-06-14T06:41:48;101586.34;;;29.79;27.82
51315;BME280;65787;59.922;10.742;2023-06-14T06:44:13;101588.78;;;29.85;28.05
51315;BME280;65787;59.922;10.742;2023-06-14T06:46:39;101591.47;;;29.90;27.38
51315;BME280;65787;59.922;10.742;2023-06-14T06:49:08;101599.34;;;30.02;27.42
51315;BME280;65787;59.922;10.742;2023-06-14T06:51:34;101605.06;;;30.11;27.54
51315;BME280;65787;59.922;10.742;2023-06-14T06:53:59;101609.25;;;30.27;26.96
51315;BME280;65787;59.922;10.742;2023-06-14T06:56:25;101601.03;;;30.41;27.01
51315;BME280;65787;59.922;10.742;2023-06-14T06:58:50;101602.16;;;30.40;27.07
51315;BME280;65787;59.922;10.742;2023-06-14T07:01:16;101600.75;;;30.43;27.09
51315;BME280;65787;59.922;10.742;2023-06-14T07:03:41;101602.28;;;30.49;26.78
51315;BME280;65787;59.922;10.742;2023-06-14T07:06:07;101606.34;;;30.57;26.88
51315;BME280;65787;59.922;10.742;2023-06-14T07:08:32;101607.00;;;30.67;26.66
51315;BME280;65787;59.922;10.742;2023-06-14T07:10:57;101603.00;;;30.74;26.68
51315;BME280;65787;59.922;10.742;2023-06-14T07:13:23;101608.16;;;30.66;26.85
51315;BME280;65787;59.922;10.742;2023-06-14T07:15:48;101601.47;;;30.67;26.90
51315;BME280;65787;59.922;10.742;2023-06-14T07:18:13;101599.19;;;30.69;27.05
51315;BME280;65787;59.922;10.742;2023-06-14T07:20:38;101605.53;;;30.56;26.61
51315;BME280;65787;59.922;10.742;2023-06-14T07:23:05;101603.84;;;30.55;26.84
51315;BME280;65787;59.922;10.742;2023-06-14T07:25:30;101603.94;;;30.69;26.85
51315;BME280;65787;59.922;10.742;2023-06-14T07:27:56;101605.97;;;30.63;26.48
51315;BME280;65787;59.922;10.742;2023-06-14T07:30:21;101616.59;;;30.56;26.83
51315;BME280;65787;59.922;10.742;2023-06-14T07:32:51;101613.13;;;30.64;26.25
51315;BME280;65787;59.922;10.742;2023-06-14T07:35:16;101609.81;;;30.48;26.57
51315;BME280;65787;59.922;10.742;2023-06-14T07:37:42;101615.56;;;30.52;27.19
51315;BME280;65787;59.922;10.742;2023-06-14T07:40:07;101612.31;;;30.64;26.80
51315;BME280;65787;59.922;10.742;2023-06-14T07:42:33;101610.50;;;30.73;26.31
51315;BME280;65787;59.922;10.742;2023-06-14T07:45:02;101613.34;;;30.87;26.30
51315;BME280;65787;59.922;10.742;2023-06-14T07:47:27;101605.03;;;30.87;26.21
51315;BME280;65787;59.922;10.742;2023-06-14T07:49:52;101610.03;;;30.85;25.54
51315;BME280;65787;59.922;10.742;2023-06-14T07:52:18;101606.47;;;30.65;25.82
51315;BME280;65787;59.922;10.742;2023-06-14T07:54:43;101614.34;;;30.58;26.19
51315;BME280;65787;59.922;10.742;2023-06-14T07:57:08;101613.47;;;30.63;26.02
51315;BME280;65787;59.922;10.742;2023-06-14T07:59:34;101613.06;;;30.69;25.58
51315;BME280;65787;59.922;10.742;2023-06-14T08:01:59;101607.53;;;30.69;25.84
51315;BME280;65787;59.922;10.742;2023-06-14T08:04:25;101615.91;;;30.64;26.09
51315;BME280;65787;59.922;10.742;2023-06-14T08:06:50;101608.25;;;30.75;25.12
51315;BME280;65787;59.922;10.742;2023-06-14T08:09:15;101610.56;;;30.87;25.51
51315;BME280;65787;59.922;10.742;2023-06-14T08:11:41;101607.66;;;30.78;25.15
51315;BME280;65787;59.922;10.742;2023-06-14T08:14:06;101603.13;;;30.68;24.90
51315;BME280;65787;59.922;10.742;2023-06-14T08:16:32;101603.19;;;30.63;25.45
51315;BME280;65787;59.922;10.742;2023-06-14T08:18:57;101603.72;;;30.65;25.72
51315;BME280;65787;59.922;10.742;2023-06-14T08:21:22;101604.22;;;30.67;26.04
51315;BME280;65787;59.922;10.742;2023-06-14T08:23:48;101606.69;;;30.69;26.55
51315;BME280;65787;59.922;10.742;2023-06-14T08:26:14;101607.19;;;30.57;26.45
51315;BME280;65787;59.922;10.742;2023-06-14T08:28:39;101610.03;;;30.52;26.16
51315;BME280;65787;59.922;10.742;2023-06-14T08:31:05;101602.66;;;30.61;26.50
51315;BME280;65787;59.922;10.742;2023-06-14T08:33:30;101611.75;;;30.48;26.44
51315;BME280;65787;59.922;10.742;2023-06-14T08:35:58;101604.47;;;30.52;26.49
51315;BME280;65787;59.922;10.742;2023-06-14T08:38:23;101601.53;;;30.62;25.94
51315;BME280;65787;59.922;10.742;2023-06-14T08:40:50;101599.81;;;30.66;25.34
51315;BME280;65787;59.922;10.742;2023-06-14T08:43:18;101603.00;;;30.74;24.73
51315;BME280;65787;59.922;10.742;2023-06-14T08:45:44;101604.31;;;30.62;25.42
51315;BME280;65787;59.922;10.742;2023-06-14T08:48:11;101608.22;;;30.61;24.95
51315;BME280;65787;59.922;10.742;2023-06-14T08:50:37;101607.25;;;30.52;24.85
51315;BME280;65787;59.922;10.742;2023-06-14T08:53:05;101601.84;;;30.42;24.96
51315;BME280;65787;59.922;10.742;2023-06-14T08:55:31;101607.31;;;30.47;24.40
51315;BME280;65787;59.922;10.742;2023-06-14T08:57:58;101608.38;;;30.51;25.05
51315;BME280;65787;59.922;10.742;2023-06-14T09:00:24;101601.63;;;30.38;25.23
51315;BME280;65787;59.922;10.742;2023-06-14T09:02:50;101603.00;;;30.41;25.34
51315;BME280;65787;59.922;10.742;2023-06-14T09:05:21;101606.56;;;30.41;24.79
51315;BME280;65787;59.922;10.742;2023-06-14T09:07:46;101604.84;;;30.45;24.41
51315;BME280;65787;59.922;10.742;2023-06-14T09:10:14;101601.81;;;30.61;23.82
51315;BME280;65787;59.922;10.742;2023-06-14T09:12:40;101599.28;;;30.64;23.57
51315;BME280;65787;59.922;10.742;2023-06-14T09:15:06;101595.31;;;30.71;22.82
51315;BME280;65787;59.922;10.742;2023-06-14T09:17:33;101591.41;;;30.72;23.70
51315;BME280;65787;59.922;10.742;2023-06-14T09:20:00;101589.44;;;30.91;23.45
51315;BME280;65787;59.922;10.742;2023-06-14T09:22:25;101587.19;;;30.93;23.07
51315;BME280;65787;59.922;10.742;2023-06-14T09:24:50;101574.06;;;30.99;22.94
51315;BME280;65787;59.922;10.742;2023-06-14T09:27:16;101582.09;;;31.14;21.88
51315;BME280;65787;59.922;10.742;2023-06-14T09:29:41;101575.84;;;31.22;21.26
51315;BME280;65787;59.922;10.742;2023-06-14T09:32:06;101576.44;;;31.19;20.10
51315;BME280;65787;59.922;10.742;2023-06-14T09:34:32;101569.56;;;31.17;20.17
51315;BME280;65787;59.922;10.742;2023-06-14T09:36:58;101574.59;;;31.29;19.96
51315;BME280;65787;59.922;10.742;2023-06-14T09:39:23;101569.44;;;31.22;19.01
51315;BME280;65787;59.922;10.742;2023-06-14T09:41:50;101574.72;;;31.37;18.71
51315;BME280;65787;59.922;10.742;2023-06-14T09:44:15;101574.13;;;31.54;20.36
51315;BME280;65787;59.922;10.742;2023-06-14T09:46:43;101563.84;;;31.69;18.25
51315;BME280;65787;59.922;10.742;2023-06-14T09:49:09;101566.22;;;31.61;20.48
51315;BME280;65787;59.922;10.742;2023-06-14T09:51:34;101567.00;;;31.76;19.91
51315;BME280;65787;59.922;10.742;2023-06-14T09:54:03;101566.69;;;31.77;20.11
51315;BME280;65787;59.922;10.742;2023-06-14T09:56:33;101565.66;;;31.87;18.51
51315;BME280;65787;59.922;10.742;2023-06-14T09:58:59;101569.16;;;32.07;20.09
51315;BME280;65787;59.922;10.742;2023-06-14T10:01:25;101569.75;;;32.17;19.99
51315;BME280;65787;59.922;10.742;2023-06-14T10:04:05;101564.63;;;32.33;20.07
51315;BME280;65787;59.922;10.742;2023-06-14T10:06:30;101569.88;;;32.35;19.14
51315;BME280;65787;59.922;10.742;2023-06-14T10:08:56;101573.47;;;32.35;19.24
51315;BME280;65787;59.922;10.742;2023-06-14T10:11:22;101569.69;;;32.31;16.88
51315;BME280;65787;59.922;10.742;2023-06-14T10:13:47;101561.03;;;32.33;17.23
51315;BME280;65787;59.922;10.742;2023-06-14T10:21:22;101569.72;;;32.76;17.82
51315;BME280;65787;59.922;10.742;2023-06-14T10:23:48;101558.19;;;32.92;17.70
51315;BME280;65787;59.922;10.742;2023-06-14T10:26:19;101564.50;;;33.06;17.06
51315;BME280;65787;59.922;10.742;2023-06-14T10:29:07;101565.03;;;33.17;17.45
51315;BME280;65787;59.922;10.742;2023-06-14T10:31:42;101552.56;;;33.46;17.09
51315;BME280;65787;59.922;10.742;2023-06-14T10:34:08;101558.41;;;33.75;17.81
51315;BME280;65787;59.922;10.742;2023-06-14T10:36:33;101550.38;;;34.00;17.53
51315;BME280;65787;59.922;10.742;2023-06-14T10:39:16;101547.09;;;34.16;15.64
51315;BME280;65787;59.922;10.742;2023-06-14T10:41:42;101537.78;;;34.38;16.96
51315;BME280;65787;59.922;10.742;2023-06-14T10:46:47;101545.44;;;34.67;14.84
51315;BME280;65787;59.922;10.742;2023-06-14T10:49:15;101544.94;;;34.82;16.08
51315;BME280;65787;59.922;10.742;2023-06-14T10:51:42;101537.84;;;34.94;15.68
51315;BME280;65787;59.922;10.742;2023-06-14T10:54:14;101546.81;;;35.08;15.80
51315;BME280;65787;59.922;10.742;2023-06-14T10:56:49;101541.22;;;35.25;15.88
51315;BME280;65787;59.922;10.742;2023-06-14T10:59:16;101546.59;;;35.31;15.83
51315;BME280;65787;59.922;10.742;2023-06-14T11:01:47;101535.22;;;35.36;15.98
51315;BME280;65787;59.922;10.742;2023-06-14T11:04:22;101533.16;;;35.54;16.70
51315;BME280;65787;59.922;10.742;2023-06-14T11:06:54;101537.78;;;35.79;15.47
51315;BME280;65787;59.922;10.742;2023-06-14T11:09:31;101526.69;;;36.13;16.17
51315;BME280;65787;59.922;10.742;2023-06-14T11:12:04;101529.13;;;36.35;15.94
51315;BME280;65787;59.922;10.742;2023-06-14T11:14:32;101528.66;;;36.67;16.20
51315;BME280;65787;59.922;10.742;2023-06-14T11:16:57;101528.00;;;36.82;15.35
51315;BME280;65787;59.922;10.742;2023-06-14T11:19:22;101538.28;;;37.03;15.19
51315;BME280;65787;59.922;10.742;2023-06-14T11:21:48;101533.38;;;37.12;14.63
51315;BME280;65787;59.922;10.742;2023-06-14T11:24:13;101531.69;;;37.32;14.80
51315;BME280;65787;59.922;10.742;2023-06-14T11:26:39;101523.47;;;37.51;14.99
51315;BME280;65787;59.922;10.742;2023-06-14T11:29:05;101526.06;;;37.69;15.37
51315;BME280;65787;59.922;10.742;2023-06-14T11:31:30;101519.41;;;38.02;14.74
51315;BME280;65787;59.922;10.742;2023-06-14T11:33:59;101518.47;;;38.10;14.17
51315;BME280;65787;59.922;10.742;2023-06-14T11:36:28;101509.03;;;38.30;13.84
51315;BME280;65787;59.922;10.742;2023-06-14T11:39:03;101510.84;;;38.39;13.94
51315;BME280;65787;59.922;10.742;2023-06-14T11:41:40;101510.59;;;38.44;12.80
51315;BME280;65787;59.922;10.742;2023-06-14T11:44:06;101504.75;;;38.65;12.53
51315;BME280;65787;59.922;10.742;2023-06-14T11:46:32;101499.44;;;38.76;13.02
51315;BME280;65787;59.922;10.742;2023-06-14T11:48:58;101498.78;;;38.98;12.95
51315;BME280;65787;59.922;10.742;2023-06-14T11:51:23;101496.91;;;39.18;13.12
51315;BME280;65787;59.922;10.742;2023-06-14T11:53:48;101491.25;;;39.34;13.14
51315;BME280;65787;59.922;10.742;2023-06-14T11:56:14;101502.78;;;39.64;11.92
51315;BME280;65787;59.922;10.742;2023-06-14T11:58:41;101492.25;;;39.97;12.47
51315;BME280;65787;59.922;10.742;2023-06-14T12:01:07;101486.16;;;40.14;11.87
51315;BME280;65787;59.922;10.742;2023-06-14T12:03:32;101488.38;;;40.44;11.65
51315;BME280;65787;59.922;10.742;2023-06-14T12:06:01;101496.13;;;40.74;11.82
51315;BME280;65787;59.922;10.742;2023-06-14T12:08:32;101483.69;;;40.98;11.45
51315;BME280;65787;59.922;10.742;2023-06-14T12:11:02;101496.47;;;41.18;10.46
51315;BME280;65787;59.922;10.742;2023-06-14T12:13:28;101485.88;;;41.35;10.53
51315;BME280;65787;59.922;10.742;2023-06-14T12:15:54;101479.47;;;41.65;10.98
51315;BME280;65787;59.922;10.742;2023-06-14T12:18:19;101480.00;;;42.08;9.38
51315;BME280;65787;59.922;10.742;2023-06-14T12:20:47;101481.53;;;42.39;9.86
51315;BME280;65787;59.922;10.742;2023-06-14T12:23:14;101467.66;;;42.64;9.84
51315;BME280;65787;59.922;10.742;2023-06-14T12:25:40;101469.00;;;42.81;8.46
51315;BME280;65787;59.922;10.742;2023-06-14T12:28:09;101467.56;;;43.02;8.43
51315;BME280;65787;59.922;10.742;2023-06-14T12:30:35;101471.69;;;43.15;9.29
51315;BME280;65787;59.922;10.742;2023-06-14T12:33:04;101461.19;;;43.16;9.16
51315;BME280;65787;59.922;10.742;2023-06-14T12:35:29;101467.09;;;43.59;9.20
51315;BME280;65787;59.922;10.742;2023-06-14T12:37:55;101460.66;;;43.65;8.79
51315;BME280;65787;59.922;10.742;2023-06-14T12:40:21;101461.16;;;43.78;8.04
51315;BME280;65787;59.922;10.742;2023-06-14T12:42:46;101461.56;;;43.84;9.34
51315;BME280;65787;59.922;10.742;2023-06-14T12:45:15;101455.19;;;44.12;7.30
51315;BME280;65787;59.922;10.742;2023-06-14T12:47:40;101451.16;;;44.24;7.92